Time;durP1;ratioP1;P1;durP2;ratioP2;P2;SDS_P1;SDS_P2;PMS_P1;PMS_P2;Temp;Humidity;BMP_temperature;BMP_pressure;BME280_temperature;BME280_humidity;BME280_pressure;Samples;Min_cycle;Max_cycle;Signal;HPM_P1;HPM_P2
2022/04/22 00:02:12;;;;;;;;;;;7.70;71.20;;;6.64;nan;95915.03;4181450;33;20152;-82
2022/04/22 00:04:40;;;;;;;;;;;7.70;71.40;;;6.65;nan;95911.22;4205642;33;20076;-83
2022/04/22 00:07:09;;;;;;;;;;;7.80;71.40;;;6.62;nan;95911.75;4180869;33;19986;-82
2022/04/22 00:09:37;;;;;;;;;;;7.70;71.20;;;6.62;nan;95911.75;4204384;33;19910;-81
2022/04/22 00:12:08;;;;;;;;;;;7.70;71.30;;;6.63;nan;95904.41;4181325;33;20148;-83
2022/04/22 00:14:37;;;;;;;;;;;7.70;71.10;;;6.63;nan;95910.66;4227894;33;19902;-82
2022/04/22 00:17:06;;;;;;;;;;;7.70;71.20;;;6.63;nan;95909.84;4203766;33;20279;-82
2022/04/22 00:19:35;;;;;;;;;;;7.70;71.10;;;6.60;nan;95906.53;4180771;33;20130;-82
2022/04/22 00:22:05;;;;;;;;;;;7.70;71.30;;;6.62;nan;95911.75;4234263;27;19902;-86
2022/04/22 00:24:33;;;;;;;;;;;7.70;71.30;;;6.62;nan;95914.47;4213047;33;19902;-86
2022/04/22 00:27:02;;;;;;;;;;;7.70;71.40;;;6.61;nan;95910.09;4236233;33;20390;-86
2022/04/22 00:29:31;;;;;;;;;;;7.70;71.50;;;6.62;nan;95919.91;4236536;33;19975;-86
2022/04/22 00:31:59;;;;;;;;;;;7.70;71.20;;;6.60;nan;95920.13;4236288;33;19925;-86
2022/04/22 00:34:28;;;;;;;;;;;7.70;71.40;;;6.61;nan;95920.97;4213093;33;20357;-86
2022/04/22 00:36:58;;;;;;;;;;;7.70;71.40;;;6.58;nan;95911.41;4212384;33;20124;-86
2022/04/22 00:39:26;;;;;;;;;;;7.70;71.40;;;6.60;nan;95919.31;4236146;33;19902;-86
2022/04/22 00:41:55;;;;;;;;;;;7.70;71.30;;;6.59;nan;95918.50;4236204;33;19902;-85
2022/04/22 00:44:24;;;;;;;;;;;7.70;71.40;;;6.58;nan;95910.59;4236247;33;20492;-86
2022/04/22 00:46:52;;;;;;;;;;;7.70;71.30;;;6.59;nan;95912.25;4235711;33;19902;-85
2022/04/22 00:49:21;;;;;;;;;;;7.70;71.50;;;6.59;nan;95923.13;4260907;33;19902;-86
2022/04/22 00:51:49;;;;;;;;;;;7.70;71.60;;;6.58;nan;95919.56;4236133;33;20392;-85
2022/04/22 00:54:19;;;;;;;;;;;7.70;71.10;;;6.58;nan;95916.03;4212631;33;20074;-85
2022/04/22 00:56:50;;;;;;;;;;;7.70;71.30;;;6.57;nan;95917.94;4212187;33;19995;-85
2022/04/22 00:59:18;;;;;;;;;;;7.70;71.40;;;6.57;nan;95914.38;4243246;33;20124;-86
2022/04/22 01:01:47;;;;;;;;;;;7.70;71.40;;;6.55;nan;95917.38;4262047;33;19927;-86
2022/04/22 01:09:51;;;;;;;;;;;7.70;71.30;;;6.56;nan;95893.69;4210309;33;19937;-85
2022/04/22 01:12:19;;;;;;;;;;;7.70;71.30;;;6.56;nan;95899.13;4210319;33;20026;-86
2022/04/22 01:14:48;;;;;;;;;;;7.70;71.60;;;6.55;nan;95905.66;4210144;33;20405;-85
2022/04/22 01:17:16;;;;;;;;;;;7.70;71.50;;;6.56;nan;95901.84;4209577;33;19902;-86
2022/04/22 01:19:45;;;;;;;;;;;7.60;71.30;;;6.54;nan;95898.56;4210009;33;19902;-85
2022/04/22 01:22:15;;;;;;;;;;;7.70;71.50;;;6.55;nan;95894.78;4209824;33;19910;-85
2022/04/22 01:24:45;;;;;;;;;;;7.60;71.30;;;6.54;nan;95887.69;4209583;33;23041;-85
2022/04/22 01:27:13;;;;;;;;;;;7.60;71.40;;;6.55;nan;95892.06;4209548;33;19903;-85
2022/04/22 01:29:42;;;;;;;;;;;7.60;71.40;;;6.54;nan;95884.97;4210008;33;19909;-86
2022/04/22 01:32:10;;;;;;;;;;;7.60;71.40;;;6.54;nan;95893.13;4233433;33;20048;-85
2022/04/22 01:34:39;;;;;;;;;;;7.60;71.30;;;6.54;nan;95890.41;4209668;33;20033;-85
2022/04/22 01:37:07;;;;;;;;;;;7.60;71.20;;;6.53;nan;95886.88;4186382;33;19964;-85
2022/04/22 01:39:38;;;;;;;;;;;7.60;71.10;;;6.53;nan;95886.88;4209950;33;20041;-85
2022/04/22 01:42:07;;;;;;;;;;;7.60;71.20;;;6.52;nan;95885.22;4234085;33;20238;-86
2022/04/22 01:44:37;;;;;;;;;;;7.60;71.30;;;6.51;nan;95886.31;4233376;33;19902;-85
2022/04/22 01:47:06;;;;;;;;;;;7.60;71.20;;;6.52;nan;95877.06;4209419;33;20079;-86
2022/04/22 01:49:37;;;;;;;;;;;7.60;71.20;;;6.52;nan;95879.00;4186520;33;19902;-86
2022/04/22 01:52:07;;;;;;;;;;;7.70;71.40;;;6.50;nan;95876.50;4210245;33;20060;-86
2022/04/22 01:54:37;;;;;;;;;;;7.60;71.20;;;6.51;nan;95863.75;4209779;33;20220;-86
2022/04/22 01:57:06;;;;;;;;;;;7.60;71.20;;;6.49;nan;95872.13;4209220;33;19909;-85
2022/04/22 01:59:36;;;;;;;;;;;7.60;71.20;;;6.51;nan;95861.03;4186625;33;20221;-85
2022/04/22 02:02:05;;;;;;;;;;;7.60;71.20;;;6.50;nan;95875.69;4209537;33;19909;-85
2022/04/22 02:04:34;;;;;;;;;;;7.60;71.10;;;6.51;nan;95863.75;4211917;33;20223;-85
2022/04/22 02:07:03;;;;;;;;;;;7.60;71.40;;;6.51;nan;95869.19;4261028;33;20359;-86
2022/04/22 02:09:32;;;;;;;;;;;7.60;71.40;;;6.49;nan;95853.09;4261624;33;20129;-86
2022/04/22 02:12:02;;;;;;;;;;;7.60;71.40;;;6.48;nan;95861.53;4261056;33;19909;-85
2022/04/22 02:14:30;;;;;;;;;;;7.60;71.40;;;6.49;nan;95847.66;4284092;33;20167;-85
2022/04/22 02:16:59;;;;;;;;;;;7.60;71.20;;;6.49;nan;95857.72;4260314;33;19908;-85
2022/04/22 02:19:28;;;;;;;;;;;7.60;71.40;;;6.49;nan;95855.00;4237782;33;19902;-85
2022/04/22 02:21:56;;;;;;;;;;;7.60;71.30;;;6.48;nan;95846.00;4261233;33;19909;-85
2022/04/22 02:24:25;;;;;;;;;;;7.60;71.40;;;6.47;nan;95843.56;4237585;33;19902;-86
2022/04/22 02:29:41;;;;;;;;;;;7.60;71.30;;;6.48;nan;95837.03;4261530;33;20161;-85
2022/04/22 02:32:10;;;;;;;;;;;7.60;71.30;;;6.49;nan;95838.69;4261444;33;19969;-85
2022/04/22 02:34:39;;;;;;;;;;;7.60;71.30;;;6.47;nan;95833.50;4261230;33;20009;-86
2022/04/22 02:37:07;;;;;;;;;;;7.60;71.40;;;6.47;nan;95832.69;4260836;33;20124;-86
2022/04/22 02:39:36;;;;;;;;;;;7.60;71.50;;;6.47;nan;95832.69;4237554;33;19902;-85
2022/04/22 02:47:39;;;;;;;;;;;7.60;71.50;;;6.48;nan;95815.28;4208719;33;19909;-86
2022/04/22 02:50:09;;;;;;;;;;;7.60;71.50;;;6.45;nan;95819.34;4186156;33;19985;-85
2022/04/22 02:52:37;;;;;;;;;;;7.60;71.60;;;6.45;nan;95808.47;4209110;33;19928;-85
2022/04/22 02:55:06;;;;;;;;;;;7.60;71.50;;;6.47;nan;95813.66;4185683;33;20023;-85
2022/04/22 02:57:35;;;;;;;;;;;7.60;71.40;;;6.46;nan;95807.38;4235702;33;20102;-85
2022/04/22 03:00:06;;;;;;;;;;;7.60;71.50;;;6.45;nan;95809.28;4260959;33;20220;-85
2022/04/22 03:02:35;;;;;;;;;;;7.50;71.40;;;6.44;nan;95818.50;4237195;33;19902;-85
2022/04/22 03:05:04;;;;;;;;;;;7.60;71.60;;;6.45;nan;95831.03;4236897;33;20089;-85
2022/04/22 03:07:32;;;;;;;;;;;7.60;71.50;;;6.45;nan;95825.59;4216218;33;19901;-85
2022/04/22 03:10:01;;;;;;;;;;;7.60;71.60;;;6.45;nan;95825.59;4213764;33;19992;-85
2022/04/22 03:12:29;;;;;;;;;;;7.60;71.50;;;6.45;nan;95822.88;4237043;33;19909;-85
2022/04/22 03:14:58;;;;;;;;;;;7.60;71.60;;;6.45;nan;95813.91;4213607;33;19902;-85
2022/04/22 03:17:28;;;;;;;;;;;7.60;71.60;;;6.44;nan;95821.22;4236404;33;19912;-84
2022/04/22 03:19:57;;;;;;;;;;;7.60;71.50;;;6.44;nan;95818.50;4237053;33;19909;-85
2022/04/22 03:22:26;;;;;;;;;;;7.50;71.50;;;6.45;nan;95822.06;4236388;33;19909;-85
2022/04/22 03:24:54;;;;;;;;;;;7.60;71.50;;;6.44;nan;95828.59;4236787;33;19908;-85
2022/04/22 03:27:23;;;;;;;;;;;7.60;71.60;;;6.45;nan;95830.22;4261174;33;19943;-87
2022/04/22 03:29:52;;;;;;;;;;;7.50;71.50;;;6.44;nan;95823.94;4236871;33;19902;-85
2022/04/22 03:32:20;;;;;;;;;;;7.50;71.50;;;6.43;nan;95819.59;4236951;33;20063;-86
2022/04/22 03:34:50;;;;;;;;;;;7.50;71.40;;;6.43;nan;95819.59;4236856;33;20132;-86
2022/04/22 03:37:19;;;;;;;;;;;7.50;71.40;;;6.44;nan;95825.88;4236060;33;19902;-85
2022/04/22 03:39:47;;;;;;;;;;;7.50;71.50;;;6.43;nan;95824.22;4213478;33;19981;-85
2022/04/22 03:42:16;;;;;;;;;;;7.50;71.70;;;6.43;nan;95825.03;4236548;33;20004;-86
2022/04/22 03:44:45;;;;;;;;;;;7.50;71.60;;;6.43;nan;95821.50;4213223;33;19989;-85
2022/04/22 03:47:13;;;;;;;;;;;7.50;71.70;;;6.42;nan;95809.78;4261191;33;20451;-85
2022/04/22 03:49:42;;;;;;;;;;;7.50;71.70;;;6.41;nan;95797.25;4236650;33;19902;-85
2022/04/22 03:52:12;;;;;;;;;;;7.50;71.70;;;6.42;nan;95809.78;4236664;33;19984;-85
2022/04/22 03:54:40;;;;;;;;;;;7.50;71.60;;;6.42;nan;95817.94;4213069;33;19972;-85
2022/04/22 03:59:55;;;;;;;;;;;7.50;71.90;;;6.42;nan;95798.09;4236514;33;20138;-86
2022/04/22 04:02:24;;;;;;;;;;;7.50;71.90;;;6.41;nan;95802.69;4260260;33;20141;-85
2022/04/22 04:04:52;;;;;;;;;;;7.50;72.80;;;6.42;nan;95806.25;4236475;33;20343;-86
2022/04/22 04:07:22;;;;;;;;;;;7.50;71.80;;;6.41;nan;95808.13;4212662;33;20216;-86
2022/04/22 04:18:09;;;;;;;;;;;7.50;71.90;;;6.41;nan;95821.72;4235979;33;20000;-85
2022/04/22 04:23:24;;;;;;;;;;;7.50;71.80;;;6.40;nan;95817.38;4236065;33;19902;-86
2022/04/22 04:25:53;;;;;;;;;;;7.50;71.80;;;6.42;nan;95814.41;4236280;33;20161;-85
2022/04/22 04:28:23;;;;;;;;;;;7.50;71.90;;;6.39;nan;95813.00;4212728;33;20228;-87
2022/04/22 04:30:51;;;;;;;;;;;7.50;71.80;;;6.41;nan;95823.66;4212948;33;19902;-85
2022/04/22 04:33:20;;;;;;;;;;;7.50;72.00;;;6.41;nan;95813.56;4212845;33;19909;-87
2022/04/22 04:35:50;;;;;;;;;;;7.50;72.10;;;6.41;nan;95807.31;4238585;33;19906;-86
2022/04/22 04:38:19;;;;;;;;;;;7.50;72.00;;;6.40;nan;95803.78;4238414;33;20002;-86
2022/04/22 04:40:49;;;;;;;;;;;7.50;71.70;;;6.40;nan;95811.94;4238731;33;20224;-85
2022/04/22 04:43:17;;;;;;;;;;;7.50;71.90;;;6.39;nan;95809.47;4262532;33;19969;-86
2022/04/22 04:45:46;;;;;;;;;;;7.50;72.10;;;6.40;nan;95803.78;4238669;33;20132;-85
2022/04/22 04:48:15;;;;;;;;;;;7.50;72.00;;;6.39;nan;95799.41;4238255;33;19916;-85
2022/04/22 04:50:44;;;;;;;;;;;7.50;72.00;;;6.41;nan;95796.44;4262551;33;19909;-85
2022/04/22 04:53:13;;;;;;;;;;;7.50;71.90;;;6.40;nan;95801.06;4222677;33;20043;-85
2022/04/22 04:55:41;;;;;;;;;;;7.50;72.00;;;6.40;nan;95800.25;4262483;33;19902;-85
2022/04/22 04:58:11;;;;;;;;;;;7.50;72.10;;;6.39;nan;95807.56;4255492;33;20119;-85
2022/04/22 05:00:40;;;;;;;;;;;7.50;72.00;;;6.41;nan;95810.06;4238631;33;19902;-86
2022/04/22 05:03:08;;;;;;;;;;;7.50;71.80;;;6.40;nan;95803.78;4262239;33;19902;-85
2022/04/22 05:05:37;;;;;;;;;;;7.50;72.10;;;6.39;nan;95793.16;4214986;33;20137;-85
2022/04/22 05:08:07;;;;;;;;;;;7.50;71.80;;;6.40;nan;95798.34;4237874;33;20128;-85
2022/04/22 05:10:36;;;;;;;;;;;7.50;72.10;;;6.39;nan;95802.13;4215023;33;19902;-86
2022/04/22 05:13:05;;;;;;;;;;;7.50;71.90;;;6.40;nan;95792.09;4262222;33;19901;-86
2022/04/22 05:15:35;;;;;;;;;;;7.50;72.00;;;6.39;nan;95788.53;4238346;33;20002;-86
2022/04/22 05:18:04;;;;;;;;;;;7.50;71.80;;;6.39;nan;95783.09;4262829;33;20098;-85
2022/04/22 05:20:33;;;;;;;;;;;7.50;71.90;;;6.37;nan;95773.56;4238206;33;19901;-86
2022/04/22 05:23:02;;;;;;;;;;;7.50;71.90;;;6.40;nan;95778.50;4238009;33;19942;-86
2022/04/22 05:25:31;;;;;;;;;;;7.50;72.10;;;6.39;nan;95772.22;4238318;33;20106;-86
2022/04/22 05:27:59;;;;;;;;;;;7.50;72.00;;;6.39;nan;95777.66;4237638;33;20213;-86
2022/04/22 05:33:15;;;;;;;;;;;7.50;72.20;;;6.39;nan;95774.94;4261741;33;20156;-86
2022/04/22 05:35:44;;;;;;;;;;;7.50;72.00;;;6.39;nan;95760.53;4238096;33;19901;-86
2022/04/22 05:38:15;;;;;;;;;;;7.50;72.00;;;6.39;nan;95766.78;4261420;33;20010;-86
2022/04/22 05:40:48;;;;;;;;;;;7.50;71.90;;;6.39;nan;95761.34;4261941;33;20163;-86
2022/04/22 05:43:17;;;;;;;;;;;7.50;71.90;;;6.39;nan;95766.78;4261959;33;20213;-85
2022/04/22 05:45:45;;;;;;;;;;;7.50;72.10;;;6.38;nan;95762.44;4237589;33;20071;-86
2022/04/22 05:48:15;;;;;;;;;;;7.50;72.10;;;6.39;nan;95766.78;4237604;33;19950;-86
2022/04/22 05:50:44;;;;;;;;;;;7.50;72.10;;;6.39;nan;95769.50;4261895;33;20236;-86
2022/04/22 05:53:13;;;;;;;;;;;7.50;72.10;;;6.38;nan;95764.34;4237868;33;19902;-86
2022/04/22 05:55:42;;;;;;;;;;;7.50;72.10;;;6.40;nan;95776.59;4261790;33;20159;-84
2022/04/22 05:58:10;;;;;;;;;;;7.50;72.10;;;6.38;nan;95765.16;4237583;33;20141;-87
2022/04/22 06:00:39;;;;;;;;;;;7.50;72.20;;;6.40;nan;95762.19;4238519;33;20250;-86
2022/04/22 06:03:08;;;;;;;;;;;7.50;72.00;;;6.40;nan;95764.91;4285780;33;19902;-85
2022/04/22 06:05:38;;;;;;;;;;;7.50;71.90;;;6.39;nan;95761.34;4261518;33;20147;-85
2022/04/22 06:10:53;;;;;;;;;;;7.50;72.10;;;6.39;nan;95772.22;4209580;33;19902;-84
2022/04/22 06:13:22;;;;;;;;;;;7.50;72.10;;;6.40;nan;95771.16;4209575;33;20383;-85
2022/04/22 06:15:50;;;;;;;;;;;7.50;72.00;;;6.40;nan;95763.00;4209472;33;19910;-85
2022/04/22 06:18:19;;;;;;;;;;;7.50;72.10;;;6.40;nan;95763.00;4186176;33;20077;-86
2022/04/22 06:20:51;;;;;;;;;;;7.50;72.00;;;6.40;nan;95752.13;4186288;33;19903;-84
2022/04/22 06:23:19;;;;;;;;;;;7.50;72.10;;;6.40;nan;95757.56;4209570;33;20008;-89
2022/04/22 06:25:48;;;;;;;;;;;7.50;72.10;;;6.39;nan;95746.94;4255200;33;19935;-85
2022/04/22 06:28:17;;;;;;;;;;;7.50;72.10;;;6.40;nan;95751.31;4261004;33;19947;-84
2022/04/22 06:30:48;;;;;;;;;;;7.50;72.10;;;6.39;nan;95746.94;4238427;33;19902;-86
2022/04/22 06:33:18;;;;;;;;;;;7.50;72.20;;;6.39;nan;95744.22;4213935;33;20130;-85
2022/04/22 06:35:47;;;;;;;;;;;7.50;72.30;;;6.40;nan;95745.88;4261367;33;19974;-86
2022/04/22 06:38:18;;;;;;;;;;;7.50;72.60;;;6.40;nan;95743.97;4260715;33;20132;-86
2022/04/22 06:46:22;;;;;;;;;;;7.50;72.70;;;6.41;nan;95742.88;4213494;33;19945;-85
2022/04/22 06:48:51;;;;;;;;;;;7.50;72.80;;;6.39;nan;95736.88;4236947;33;19901;-86
2022/04/22 06:51:23;;;;;;;;;;;7.50;72.80;;;6.41;nan;95742.88;4237086;33;19902;-86
2022/04/22 06:53:53;;;;;;;;;;;7.50;72.60;;;6.41;nan;95739.34;4237240;33;19909;-84
2022/04/22 06:56:26;;;;;;;;;;;7.50;72.40;;;6.39;nan;95736.88;4236903;33;19964;-85
2022/04/22 06:58:55;;;;;;;;;;;7.50;72.50;;;6.41;nan;95748.31;4236180;33;20163;-84
2022/04/22 07:01:24;;;;;;;;;;;7.50;72.80;;;6.41;nan;95742.06;4237222;33;20133;-85
2022/04/22 07:03:54;;;;;;;;;;;7.50;72.70;;;6.41;nan;95734.72;4284988;33;19909;-85
2022/04/22 07:06:22;;;;;;;;;;;7.50;72.70;;;6.41;nan;95732.00;4261353;33;19902;-86
2022/04/22 07:08:53;;;;;;;;;;;7.50;72.70;;;6.39;nan;95727.91;4260975;33;20099;-85
2022/04/22 07:11:24;;;;;;;;;;;7.50;72.70;;;6.41;nan;95732.00;4260825;33;19901;-85
2022/04/22 07:13:53;;;;;;;;;;;7.50;72.80;;;6.42;nan;95739.09;4260734;33;20114;-87
2022/04/22 07:16:22;;;;;;;;;;;7.50;72.60;;;6.40;nan;95727.66;4284611;33;20143;-86
2022/04/22 07:18:51;;;;;;;;;;;7.50;72.80;;;6.41;nan;95742.06;4260634;33;20551;-85
2022/04/22 07:21:21;;;;;;;;;;;7.50;72.90;;;6.42;nan;95743.72;4260647;33;19902;-85
2022/04/22 07:23:50;;;;;;;;;;;7.50;73.10;;;6.42;nan;95738.28;4260646;33;19984;-87
2022/04/22 07:26:20;;;;;;;;;;;7.50;73.20;;;6.43;nan;95750.81;4260391;33;20125;-85
2022/04/22 07:28:51;;;;;;;;;;;7.50;73.30;;;6.42;nan;95754.59;4236880;33;19928;-87
2022/04/22 07:31:20;;;;;;;;;;;7.50;72.90;;;6.45;nan;95764.97;4260635;33;19902;-87
2022/04/22 07:33:51;;;;;;;;;;;7.50;73.50;;;6.44;nan;95758.69;4260409;33;20022;-86
2022/04/22 07:36:21;;;;;;;;;;;7.60;73.50;;;6.43;nan;95767.94;4236315;33;19902;-86
2022/04/22 07:38:50;;;;;;;;;;;7.50;73.10;;;6.44;nan;95766.03;4260437;33;20016;-85
2022/04/22 07:41:25;;;;;;;;;;;7.60;72.90;;;6.44;nan;95768.75;4236867;33;19902;-86
2022/04/22 07:46:57;;;;;;;;;;;7.60;72.80;;;6.44;nan;95783.16;4284326;33;19925;-85
2022/04/22 07:49:27;;;;;;;;;;;7.60;72.70;;;6.47;nan;95789.19;4236645;33;19909;-85
2022/04/22 07:51:56;;;;;;;;;;;7.60;72.70;;;6.47;nan;95789.19;4236540;33;19902;-84
2022/04/22 07:54:24;;;;;;;;;;;7.60;72.80;;;6.47;nan;95781.03;4260217;33;19902;-86
2022/04/22 07:56:56;;;;;;;;;;;7.60;72.90;;;6.49;nan;95779.69;4261030;33;20033;-85
2022/04/22 07:59:26;;;;;;;;;;;7.60;73.00;;;6.48;nan;95780.75;4260237;33;20331;-85
2022/04/22 08:01:58;;;;;;;;;;;7.60;73.10;;;6.50;nan;95775.06;4236554;33;19909;-86
2022/04/22 08:04:27;;;;;;;;;;;7.60;73.10;;;6.50;nan;95777.78;4260178;33;19936;-84
2022/04/22 08:06:55;;;;;;;;;;;7.60;73.30;;;6.52;nan;95783.81;4259783;33;19902;-83
2022/04/22 08:09:24;;;;;;;;;;;7.60;73.30;;;6.50;nan;95788.66;4283987;33;19902;-84
2022/04/22 08:11:54;;;;;;;;;;;7.60;73.30;;;6.52;nan;95781.09;4284163;33;20319;-85
2022/04/22 08:14:23;;;;;;;;;;;7.60;73.30;;;6.52;nan;95792.78;4260158;33;20137;-84
2022/04/22 08:16:52;;;;;;;;;;;7.60;73.20;;;6.52;nan;95798.22;4236065;33;19902;-84
2022/04/22 08:19:21;;;;;;;;;;;7.60;73.20;;;6.52;nan;95791.97;4260063;33;19902;-85
2022/04/22 08:21:49;;;;;;;;;;;7.60;73.30;;;6.54;nan;95800.66;4259948;33;20159;-84
2022/04/22 08:24:18;;;;;;;;;;;7.60;73.40;;;6.54;nan;95806.09;4259944;33;19909;-84
2022/04/22 08:26:46;;;;;;;;;;;7.70;73.60;;;6.54;nan;95803.38;4235757;33;19909;-84
2022/04/22 08:29:16;;;;;;;;;;;7.70;73.70;;;6.54;nan;95803.38;4259911;33;20170;-84
2022/04/22 08:31:45;;;;;;;;;;;7.60;73.50;;;6.54;nan;95806.09;4259815;33;19954;-84
2022/04/22 08:34:14;;;;;;;;;;;7.70;73.70;;;6.54;nan;95806.09;4283949;33;20129;-84
2022/04/22 08:36:45;;;;;;;;;;;7.70;73.60;;;6.54;nan;95811.53;4235654;33;20162;-84
2022/04/22 08:39:13;;;;;;;;;;;7.70;73.60;;;6.55;nan;95808.59;4236111;33;19942;-84
2022/04/22 08:41:42;;;;;;;;;;;7.60;73.50;;;6.53;nan;95807.19;4235963;33;19902;-84
2022/04/22 08:44:14;;;;;;;;;;;7.70;73.70;;;6.54;nan;95808.81;4259628;33;19976;-85
2022/04/22 08:52:17;;;;;;;;;;;7.60;73.60;;;6.54;nan;95795.22;4250299;33;19901;-85
2022/04/22 08:54:45;;;;;;;;;;;7.60;73.60;;;6.53;nan;95799.03;4212480;33;20235;-86
2022/04/22 08:57:14;;;;;;;;;;;7.60;73.70;;;6.52;nan;95798.22;4212194;33;20330;-85
2022/04/22 08:59:43;;;;;;;;;;;7.60;73.70;;;6.52;nan;95800.94;4236049;33;20010;-85
2022/04/22 09:02:13;;;;;;;;;;;7.60;73.80;;;6.52;nan;95802.84;4235826;33;20112;-85
2022/04/22 09:04:41;;;;;;;;;;;7.60;73.70;;;6.51;nan;95798.47;4235701;33;19978;-86
2022/04/22 09:07:13;;;;;;;;;;;7.60;73.60;;;6.51;nan;95795.75;4235604;33;19901;-86
2022/04/22 09:09:41;;;;;;;;;;;7.60;73.70;;;6.51;nan;95790.31;4212628;33;19901;-85
2022/04/22 09:12:11;;;;;;;;;;;7.60;73.70;;;6.50;nan;95783.22;4235833;33;19967;-85
2022/04/22 09:14:46;;;;;;;;;;;7.60;73.70;;;6.51;nan;95784.88;4260561;33;20121;-85
2022/04/22 09:17:18;;;;;;;;;;;7.60;73.90;;;6.50;nan;95777.78;4211983;33;20046;-85
2022/04/22 09:19:47;;;;;;;;;;;7.60;73.70;;;6.50;nan;95772.34;4235633;33;19925;-85
2022/04/22 09:22:19;;;;;;;;;;;7.60;73.70;;;6.52;nan;95759.34;4261139;33;19925;-85
2022/04/22 09:24:51;;;;;;;;;;;7.60;73.70;;;6.50;nan;95745.97;4238223;33;19994;-85
2022/04/22 09:27:20;;;;;;;;;;;7.60;73.80;;;6.53;nan;95741.91;4237965;33;20186;-85
2022/04/22 09:29:53;;;;;;;;;;;7.60;73.80;;;6.54;nan;95743.56;4238109;33;20431;-85
2022/04/22 09:32:27;;;;;;;;;;;7.70;73.90;;;6.54;nan;95746.28;4238202;33;19902;-84
2022/04/22 09:34:57;;;;;;;;;;;7.70;73.90;;;6.53;nan;95734.59;4238133;33;20067;-84
2022/04/22 09:43:15;;;;;;;;;;;7.70;73.90;;;6.59;nan;95717.22;4236784;33;19901;-84
2022/04/22 09:45:43;;;;;;;;;;;7.70;73.90;;;6.62;nan;95715.91;4261812;33;19955;-84
2022/04/22 09:48:19;;;;;;;;;;;7.70;73.80;;;6.64;nan;95708.31;4214091;33;20609;-85
2022/04/22 09:50:52;;;;;;;;;;;7.80;73.70;;;6.67;nan;95712.41;4237905;33;20078;-84
2022/04/22 09:53:32;;;;;;;;;;;7.80;73.60;;;6.71;nan;95713.56;4237884;33;19901;-84
2022/04/22 09:56:06;;;;;;;;;;;7.80;73.50;;;6.73;nan;95712.22;4214088;33;20018;-85
2022/04/22 09:58:35;;;;;;;;;;;7.80;73.40;;;6.75;nan;95692.91;4261681;33;19946;-84
2022/04/22 10:01:06;;;;;;;;;;;7.90;73.50;;;6.78;nan;95694.31;4237810;33;20163;-84
2022/04/22 10:03:37;;;;;;;;;;;7.90;73.40;;;6.79;nan;95687.75;4261487;33;20055;-84
2022/04/22 10:06:06;;;;;;;;;;;7.90;73.20;;;6.82;nan;95684.53;4261043;33;20160;-84
2022/04/22 10:08:37;;;;;;;;;;;7.90;73.20;;;6.82;nan;95681.81;4237843;33;20173;-84
2022/04/22 10:11:06;;;;;;;;;;;7.90;73.20;;;6.84;nan;95682.38;4261437;33;20132;-84
2022/04/22 10:13:41;;;;;;;;;;;8.00;73.10;;;6.88;nan;95680.78;4262286;33;19969;-84
2022/04/22 10:16:10;;;;;;;;;;;8.00;73.10;;;6.88;nan;95675.34;4261041;33;20232;-84
2022/04/22 10:18:40;;;;;;;;;;;8.00;73.10;;;6.89;nan;95680.50;4237571;33;20132;-84
2022/04/22 10:21:09;;;;;;;;;;;8.00;73.10;;;6.89;nan;95676.97;4261404;33;19902;-84
2022/04/22 10:23:38;;;;;;;;;;;8.00;73.10;;;6.90;nan;95667.75;4261273;33;20023;-85
2022/04/22 10:26:07;;;;;;;;;;;8.00;73.30;;;6.93;nan;95672.63;4236885;33;19905;-84
2022/04/22 10:28:35;;;;;;;;;;;8.00;73.20;;;6.95;nan;95656.06;4261135;33;20089;-85
2022/04/22 10:31:04;;;;;;;;;;;8.00;73.20;;;6.95;nan;95654.16;4261052;33;19941;-84
2022/04/22 10:33:41;;;;;;;;;;;8.10;73.30;;;6.96;nan;95644.09;4237107;33;20325;-85
2022/04/22 10:36:13;;;;;;;;;;;8.10;73.30;;;6.94;nan;95636.19;4260733;33;19902;-84
2022/04/22 10:38:43;;;;;;;;;;;8.10;73.30;;;6.96;nan;95628.59;4261178;33;20140;-83
2022/04/22 10:41:16;;;;;;;;;;;8.10;73.40;;;6.98;nan;95625.59;4262067;33;20110;-84
2022/04/22 10:43:45;;;;;;;;;;;8.10;73.20;;;6.99;nan;95622.63;4261153;33;19909;-84
2022/04/22 10:49:14;;;;;;;;;;;8.10;73.20;;;7.01;nan;95615.03;4225230;33;20150;-84
2022/04/22 10:52:09;;;;;;;;;;;8.10;73.20;;;7.02;nan;95624.81;4208952;33;20239;-84
2022/04/22 10:55:12;;;;;;;;;;;8.10;73.20;;;7.03;nan;95612.88;4232331;33;19910;-84
2022/04/22 10:57:42;;;;;;;;;;;8.10;73.20;;;7.03;nan;95606.59;4231818;33;20212;-85
2022/04/22 11:00:29;;;;;;;;;;;8.10;73.20;;;7.04;nan;95602.78;4232296;33;19909;-85
2022/04/22 11:03:13;;;;;;;;;;;8.20;73.20;;;7.06;nan;95601.44;4185771;33;19925;-85
2022/04/22 11:05:47;;;;;;;;;;;8.20;73.20;;;7.04;nan;95603.59;4233165;33;20202;-85
2022/04/22 11:08:35;;;;;;;;;;;8.20;73.10;;;7.06;nan;95592.47;4231868;33;19903;-85
2022/04/22 11:11:15;;;;;;;;;;;8.20;73.10;;;7.05;nan;95588.91;4185746;33;19902;-85
2022/04/22 11:13:45;;;;;;;;;;;8.20;73.10;;;7.06;nan;95582.38;4232160;33;19910;-85
2022/04/22 11:16:16;;;;;;;;;;;8.20;73.10;;;7.05;nan;95599.78;4185084;33;20328;-85
2022/04/22 11:18:46;;;;;;;;;;;8.20;73.10;;;7.06;nan;95585.09;4208632;33;19903;-85
2022/04/22 11:21:42;;;;;;;;;;;8.20;73.10;;;7.06;nan;95590.53;4231967;33;19987;-85
2022/04/22 11:24:14;;;;;;;;;;;8.20;73.10;;;7.06;nan;95584.28;4208630;33;20272;-85
2022/04/22 11:26:42;;;;;;;;;;;8.20;73.10;;;7.06;nan;95600.63;4185072;33;19902;-85
2022/04/22 11:29:11;;;;;;;;;;;8.20;73.30;;;7.06;nan;95600.63;4208559;33;20150;-86
2022/04/22 11:31:40;;;;;;;;;;;8.20;73.40;;;7.06;nan;95601.44;4185289;33;19902;-85
2022/04/22 11:34:11;;;;;;;;;;;8.20;73.40;;;7.06;nan;95601.44;4208516;33;19991;-85
2022/04/22 11:36:48;;;;;;;;;;;8.20;73.40;;;7.06;nan;95589.72;4208066;33;20106;-82
2022/04/22 11:39:21;;;;;;;;;;;8.20;73.40;;;7.05;nan;95571.75;4185255;33;19910;-82
2022/04/22 11:41:56;;;;;;;;;;;8.20;73.40;;;7.05;nan;95572.56;4208395;33;19971;-83
2022/04/22 11:44:24;;;;;;;;;;;8.20;73.40;;;7.03;nan;95572.03;4184623;33;19910;-84
2022/04/22 11:46:54;;;;;;;;;;;8.10;73.50;;;7.03;nan;95547.53;4231223;33;19995;-84
2022/04/22 11:49:30;;;;;;;;;;;8.10;73.60;;;6.98;nan;95539.34;4211728;33;20146;-84
2022/04/22 11:52:05;;;;;;;;;;;8.10;73.60;;;6.98;nan;95536.63;4236859;33;20371;-84
2022/04/22 11:54:42;;;;;;;;;;;8.10;73.60;;;6.98;nan;95533.06;4214833;33;20107;-84
2022/04/22 11:57:14;;;;;;;;;;;8.10;73.70;;;6.99;nan;95513.78;4213433;33;20398;-83
2022/04/22 12:05:31;;;;;;;;;;;8.10;73.70;;;6.99;nan;95511.06;4260219;33;19909;-83
2022/04/22 12:05:37;;;;;;;;;;;8.10;73.70;;;7.00;nan;95518.13;4236236;33;20213;-84
2022/04/22 12:08:13;;;;;;;;;;;8.10;73.90;;;7.01;nan;95503.44;4259639;33;19901;-84
2022/04/22 12:10:44;;;;;;;;;;;8.10;74.00;;;7.01;nan;95508.88;4212989;33;19901;-83
2022/04/22 12:13:13;;;;;;;;;;;8.10;73.90;;;7.02;nan;95518.69;4236237;33;20102;-83
2022/04/22 12:15:46;;;;;;;;;;;8.10;74.00;;;7.03;nan;95512.16;4236230;33;19902;-84
2022/04/22 12:18:29;;;;;;;;;;;8.10;74.00;;;7.02;nan;95498.81;4259621;33;20163;-84
2022/04/22 12:20:58;;;;;;;;;;;8.10;74.00;;;7.05;nan;95507.25;4212749;33;20240;-83
2022/04/22 12:23:39;;;;;;;;;;;8.10;73.90;;;7.05;nan;95501.00;4236596;33;20320;-83
2022/04/22 12:26:16;;;;;;;;;;;8.20;74.00;;;7.05;nan;95507.25;4212365;33;19909;-84
2022/04/22 12:29:02;;;;;;;;;;;8.20;73.90;;;7.05;nan;95496.38;4212700;33;19902;-83
2022/04/22 12:31:31;;;;;;;;;;;8.20;73.90;;;7.05;nan;95474.59;4236244;33;19902;-84
2022/04/22 12:34:02;;;;;;;;;;;8.20;73.90;;;7.06;nan;95459.09;4236293;33;20356;-84
2022/04/22 12:36:34;;;;;;;;;;;8.20;73.90;;;7.05;nan;95452.81;4235466;33;19902;-83
2022/04/22 12:39:05;;;;;;;;;;;8.20;73.90;;;7.06;nan;95476.22;4259884;33;19901;-84
2022/04/22 12:41:44;;;;;;;;;;;8.20;73.90;;;7.07;nan;95472.44;4236186;33;20279;-84
2022/04/22 12:44:13;;;;;;;;;;;8.20;73.90;;;7.09;nan;95449.56;4236142;33;19902;-83
2022/04/22 12:52:28;;;;;;;;;;;8.20;73.90;;;7.12;nan;95408.22;4235825;33;19901;-84
2022/04/22 12:55:05;;;;;;;;;;;8.20;73.90;;;7.13;nan;95412.59;4260054;33;19990;-85
2022/04/22 12:57:35;;;;;;;;;;;8.20;73.90;;;7.12;nan;95416.38;4214673;33;19902;-84
2022/04/22 13:00:14;;;;;;;;;;;8.20;73.90;;;7.13;nan;95405.22;4238550;33;19902;-84
2022/04/22 13:02:42;;;;;;;;;;;8.20;73.90;;;7.12;nan;95403.59;4238486;33;20221;-82
2022/04/22 13:05:17;;;;;;;;;;;8.20;73.90;;;7.12;nan;95378.28;4214957;33;19902;-83
2022/04/22 13:07:47;;;;;;;;;;;8.20;73.90;;;7.12;nan;95378.28;4237933;33;19913;-83
2022/04/22 13:10:19;;;;;;;;;;;8.20;74.00;;;7.11;nan;95380.16;4262194;33;19916;-83
2022/04/22 13:12:48;;;;;;;;;;;8.20;74.00;;;7.11;nan;95376.66;4238291;33;20453;-82